createdAt,value
2018-02-08T00:02:06.968Z,45.80
2018-02-08T00:04:33.876Z,51.22
2018-02-08T00:07:01.928Z,51.33
2018-02-08T00:09:28.839Z,50.97
2018-02-08T00:11:55.764Z,53.13
2018-02-08T00:14:22.677Z,45.30
2018-02-08T00:16:50.483Z,40.75
2018-02-08T00:19:17.404Z,41.08
2018-02-08T00:21:45.091Z,43.72
2018-02-08T00:24:12.006Z,50.78
2018-02-08T00:26:39.711Z,39.83
2018-02-08T00:29:06.628Z,48.15
2018-02-08T00:31:33.560Z,47.42
2018-02-08T00:34:01.277Z,44.05
2018-02-08T00:36:28.195Z,46.83
2018-02-08T00:38:56.669Z,49.08
2018-02-08T00:41:23.715Z,60.83
2018-02-08T00:43:51.564Z,67.32
2018-02-08T00:46:18.500Z,64.32
2018-02-08T00:48:46.168Z,86.12
2018-02-08T00:51:13.868Z,86.07
2018-02-08T00:53:40.792Z,94.57
2018-02-08T00:56:07.714Z,101.03
2018-02-08T00:58:35.412Z,106.47
2018-02-08T01:01:02.361Z,73.18
2018-02-08T01:03:30.271Z,70.87
2018-02-08T01:05:57.317Z,57.20
2018-02-08T01:08:26.222Z,63.47
2018-02-08T01:10:53.900Z,64.53
2018-02-08T01:13:20.824Z,65.28
2018-02-08T01:15:50.768Z,65.57
2018-02-08T01:18:19.052Z,85.15
2018-02-08T01:20:45.959Z,84.65
2018-02-08T01:23:13.644Z,85.62
2018-02-08T01:25:40.560Z,83.07
2018-02-08T01:28:08.627Z,109.75
2018-02-08T01:30:35.560Z,104.78
2018-02-08T01:33:06.221Z,109.43
2018-02-08T01:35:33.904Z,109.28
2018-02-08T01:38:00.832Z,82.95
2018-02-08T01:40:28.511Z,79.90
2018-02-08T01:42:55.443Z,87.12
2018-02-08T01:45:23.133Z,76.82
2018-02-08T01:47:50.060Z,81.78
2018-02-08T01:50:16.984Z,75.97
2018-02-08T01:52:44.674Z,58.92
2018-02-08T01:55:11.587Z,63.83
2018-02-08T01:57:39.276Z,53.42
2018-02-08T02:00:06.192Z,49.25
2018-02-08T02:02:33.884Z,50.65
2018-02-08T02:05:00.797Z,56.70
2018-02-08T02:07:28.488Z,59.20
2018-02-08T02:09:55.403Z,53.67
2018-02-08T02:12:23.096Z,48.60
2018-02-08T02:14:50.018Z,63.13
2018-02-08T02:17:17.713Z,48.38
2018-02-08T02:19:44.619Z,52.30
2018-02-08T02:22:12.312Z,45.58
2018-02-08T02:24:39.224Z,53.95
2018-02-08T02:27:06.921Z,56.90
2018-02-08T02:29:33.845Z,48.40
2018-02-08T02:32:00.766Z,51.10
2018-02-08T02:34:28.443Z,53.87
2018-02-08T02:36:56.140Z,46.60
2018-02-08T02:39:23.044Z,49.83
2018-02-08T02:41:50.735Z,48.17
2018-02-08T02:44:17.648Z,58.75
2018-02-08T02:46:45.342Z,55.67
2018-02-08T02:49:12.259Z,49.05
2018-02-08T02:51:46.020Z,46.85
2018-02-08T02:54:12.936Z,47.88
2018-02-08T02:56:39.860Z,58.72
2018-02-08T02:59:06.789Z,51.37
2018-02-08T03:01:34.539Z,55.50
2018-02-08T03:04:01.447Z,53.15
2018-02-08T03:06:28.356Z,54.78
2018-02-08T03:08:55.296Z,57.90
2018-02-08T03:11:22.987Z,51.22
2018-02-08T03:13:49.903Z,48.58
2018-02-08T03:16:16.820Z,49.67
2018-02-08T03:18:45.255Z,51.30
2018-02-08T03:21:13.180Z,56.67
2018-02-08T03:23:40.877Z,49.53
2018-02-08T03:26:07.792Z,48.67
2018-02-08T03:28:35.484Z,59.72
2018-02-08T03:31:02.397Z,51.03
2018-02-08T03:33:31.096Z,51.22
2018-02-08T03:35:58.954Z,59.03
2018-02-08T03:38:26.652Z,51.83
2018-02-08T03:40:56.544Z,51.37
2018-02-08T03:43:23.471Z,46.92
2018-02-08T03:45:52.151Z,52.65
2018-02-08T03:48:19.842Z,52.45
2018-02-08T03:50:46.753Z,46.08
2018-02-08T03:53:15.459Z,54.95
2018-02-08T03:55:42.370Z,58.67
2018-02-08T03:58:09.301Z,52.03
2018-02-08T04:00:36.204Z,52.90
2018-02-08T04:03:03.148Z,57.60
2018-02-08T04:05:30.071Z,50.55
2018-02-08T04:07:57.768Z,62.00
2018-02-08T04:10:24.681Z,57.95
2018-02-08T04:12:52.389Z,47.47
2018-02-08T04:15:19.299Z,56.72
2018-02-08T04:17:46.232Z,53.10
2018-02-08T04:20:13.915Z,48.58
2018-02-08T04:22:40.840Z,47.53
2018-02-08T04:25:08.524Z,58.25
2018-02-08T04:27:36.380Z,59.17
2018-02-08T04:30:03.674Z,55.03
2018-02-08T04:32:30.600Z,59.25
2018-02-08T04:34:57.776Z,59.95
2018-02-08T04:37:24.704Z,54.20
2018-02-08T04:40:05.241Z,54.13
2018-02-08T04:42:44.241Z,55.85
2018-02-08T04:45:23.690Z,53.40
2018-02-08T04:47:57.413Z,50.75
2018-02-08T04:50:25.247Z,58.35
2018-02-08T04:52:52.940Z,51.60
2018-02-08T04:55:19.853Z,53.92
2018-02-08T04:57:47.544Z,53.85
2018-02-08T05:00:14.457Z,50.42
2018-02-08T05:02:42.164Z,49.40
2018-02-08T05:05:09.075Z,48.60
2018-02-08T05:07:37.132Z,58.60
2018-02-08T05:10:04.849Z,63.50
2018-02-08T05:12:32.682Z,58.33
2018-02-08T05:14:59.616Z,51.85
2018-02-08T05:17:27.292Z,47.67
2018-02-08T05:19:55.170Z,59.47
2018-02-08T05:22:22.069Z,51.00
2018-02-08T05:24:48.992Z,50.67
2018-02-08T05:27:15.901Z,49.25
2018-02-08T05:29:42.944Z,44.63
2018-02-08T05:32:09.850Z,58.45
2018-02-08T05:34:36.764Z,52.62
2018-02-08T05:37:03.693Z,47.80
2018-02-08T05:39:30.608Z,56.22
2018-02-08T05:41:57.536Z,56.22
2018-02-08T05:44:25.216Z,49.05
2018-02-08T05:46:52.135Z,54.08
2018-02-08T05:49:20.836Z,53.30
2018-02-08T05:51:48.536Z,50.33
2018-02-08T05:54:15.451Z,48.53
2018-02-08T05:56:42.384Z,52.47
2018-02-08T05:59:10.061Z,47.50
2018-02-08T06:01:36.990Z,59.80
2018-02-08T06:04:04.677Z,54.20
2018-02-08T06:06:31.603Z,46.85
2018-02-08T06:08:58.531Z,48.42
2018-02-08T06:11:25.455Z,38.05
2018-02-08T06:13:52.371Z,42.15
2018-02-08T06:16:19.286Z,42.55
2018-02-08T06:18:46.187Z,46.30
2018-02-08T06:21:13.119Z,42.17
2018-02-08T06:23:40.025Z,46.72
2018-02-08T06:26:06.980Z,55.38
2018-02-08T06:28:33.896Z,48.63
2018-02-08T06:31:01.601Z,51.10
2018-02-08T06:33:28.534Z,42.85
2018-02-08T06:35:55.469Z,63.25
2018-02-08T06:38:22.375Z,39.92
2018-02-08T06:40:49.307Z,48.95
2018-02-08T06:43:16.219Z,37.88
2018-02-08T06:45:43.152Z,48.00
2018-02-08T06:48:10.066Z,44.50
2018-02-08T06:50:37.780Z,46.63
2018-02-08T06:53:04.687Z,45.65
2018-02-08T06:55:31.627Z,48.20
2018-02-08T06:57:58.538Z,46.63
2018-02-08T07:00:27.247Z,54.17
2018-02-08T07:02:54.928Z,49.60
2018-02-08T07:05:21.863Z,56.42
2018-02-08T07:07:48.770Z,49.30
2018-02-08T07:10:15.700Z,50.45
2018-02-08T07:12:42.615Z,46.88
2018-02-08T07:15:09.537Z,46.37
2018-02-08T07:17:37.217Z,43.53
2018-02-08T07:20:04.167Z,44.03
2018-02-08T07:22:31.095Z,48.83
2018-02-08T07:24:58.023Z,50.67
2018-02-08T07:27:25.713Z,55.03
2018-02-08T07:29:52.635Z,45.38
2018-02-08T07:32:20.317Z,59.70
2018-02-08T07:34:47.239Z,43.53
2018-02-08T07:37:14.913Z,49.40
2018-02-08T07:39:41.844Z,55.75
2018-02-08T07:42:09.525Z,59.47
2018-02-08T07:44:36.469Z,48.08
2018-02-08T07:47:03.388Z,51.75
2018-02-08T07:49:31.084Z,55.90
2018-02-08T07:51:57.987Z,50.00
2018-02-08T07:54:24.914Z,55.47
2018-02-08T07:56:51.828Z,56.05
2018-02-08T07:59:18.759Z,55.10
2018-02-08T08:01:46.595Z,53.95
2018-02-08T08:04:14.295Z,53.55
2018-02-08T08:06:41.222Z,59.00
2018-02-08T08:09:08.152Z,55.38
2018-02-08T08:11:35.840Z,55.15
2018-02-08T08:14:02.894Z,55.03
2018-02-08T08:16:29.813Z,52.62
2018-02-08T08:18:57.505Z,58.53
2018-02-08T08:21:24.425Z,54.42
2018-02-08T08:23:51.338Z,59.67
2018-02-08T08:26:18.271Z,58.20
2018-02-08T08:28:45.197Z,61.08
2018-02-08T08:31:12.144Z,63.90
2018-02-08T08:33:39.052Z,54.45
2018-02-08T08:36:05.985Z,58.75
2018-02-08T08:38:32.903Z,58.87
2018-02-08T08:40:59.832Z,67.30
2018-02-08T08:43:26.744Z,54.63
2018-02-08T08:45:53.680Z,58.97
2018-02-08T08:48:20.586Z,59.55
2018-02-08T08:50:48.268Z,62.95
2018-02-08T08:53:15.176Z,59.05
2018-02-08T08:55:42.121Z,63.03
2018-02-08T08:58:09.028Z,58.83
2018-02-08T09:00:35.943Z,59.03
2018-02-08T09:03:03.629Z,57.60
2018-02-08T09:05:30.551Z,55.10
2018-02-08T09:07:57.483Z,62.25
2018-02-08T09:10:25.193Z,53.85
2018-02-08T09:12:52.094Z,56.78
2018-02-08T09:15:19.785Z,53.78
2018-02-08T09:17:46.705Z,62.55
2018-02-08T09:20:14.419Z,60.75
2018-02-08T09:22:41.379Z,57.08
2018-02-08T09:25:09.284Z,57.00
2018-02-08T09:27:36.196Z,51.85
2018-02-08T09:30:03.171Z,54.95
2018-02-08T09:32:30.080Z,49.05
2018-02-08T09:34:57.011Z,55.25
2018-02-08T09:37:23.924Z,57.97
2018-02-08T09:39:50.861Z,65.07
2018-02-08T09:42:17.776Z,64.82
2018-02-08T09:44:45.468Z,74.07
2018-02-08T09:47:12.380Z,68.87
2018-02-08T09:49:40.076Z,71.07
2018-02-08T09:52:06.993Z,81.00
2018-02-08T09:54:34.685Z,69.45
2018-02-08T09:57:01.592Z,77.60
2018-02-08T09:59:29.284Z,88.12
2018-02-08T10:01:56.188Z,91.50
2018-02-08T10:04:24.087Z,82.72
2018-02-08T10:06:50.999Z,75.72
2018-02-08T10:09:17.926Z,88.78
2018-02-08T10:11:44.832Z,78.57
2018-02-08T10:14:11.756Z,72.85
2018-02-08T10:16:39.620Z,81.50
2018-02-08T10:19:08.309Z,87.25
2018-02-08T10:21:35.985Z,74.43
2018-02-08T10:24:03.847Z,73.62
2018-02-08T10:26:31.673Z,71.43
2018-02-08T10:28:58.599Z,72.35
2018-02-08T10:31:25.510Z,59.53
2018-02-08T10:33:52.432Z,59.63
2018-02-08T10:36:20.111Z,58.92
2018-02-08T10:38:47.031Z,58.75
2018-02-08T10:41:14.699Z,66.80
2018-02-08T10:43:42.385Z,69.37
2018-02-08T10:46:09.284Z,61.50
2018-02-08T10:48:36.208Z,60.17
2018-02-08T10:51:03.113Z,57.22
2018-02-08T10:53:30.948Z,61.47
2018-02-08T10:55:59.628Z,52.22
2018-02-08T10:58:27.315Z,49.28
2018-02-08T11:00:54.219Z,64.80
2018-02-08T11:03:21.144Z,53.53
2018-02-08T11:05:48.049Z,56.13
2018-02-08T11:08:14.992Z,60.12
2018-02-08T11:10:41.919Z,51.35
2018-02-08T11:13:08.821Z,51.88
2018-02-08T11:15:35.775Z,57.25
2018-02-08T11:18:02.692Z,53.33
2018-02-08T11:20:29.615Z,52.22
2018-02-08T11:22:56.520Z,57.28
2018-02-08T11:25:23.472Z,55.70
2018-02-08T11:27:51.164Z,48.42
2018-02-08T11:30:18.096Z,49.47
2018-02-08T11:32:45.774Z,46.20
2018-02-08T11:35:12.716Z,53.60
2018-02-08T11:37:39.636Z,59.00
2018-02-08T11:40:07.340Z,53.65
2018-02-08T11:42:34.269Z,53.10
2018-02-08T11:45:01.200Z,47.95
2018-02-08T11:47:28.868Z,40.10
2018-02-08T11:49:55.799Z,45.33
2018-02-08T11:52:23.481Z,44.83
2018-02-08T11:54:50.400Z,46.90
2018-02-08T11:57:18.073Z,47.92
2018-02-08T11:59:45.760Z,49.97
2018-02-08T12:02:13.592Z,63.53
2018-02-08T12:04:41.286Z,58.25
2018-02-08T12:07:08.192Z,53.55
2018-02-08T12:09:36.948Z,54.22
2018-02-08T12:12:03.857Z,55.42
2018-02-08T12:14:31.559Z,55.95
2018-02-08T12:16:58.472Z,48.50
2018-02-08T12:19:26.326Z,56.90
2018-02-08T12:21:53.231Z,53.58
2018-02-08T12:24:21.133Z,52.42
2018-02-08T12:26:48.999Z,51.53
2018-02-08T12:29:15.928Z,53.60
2018-02-08T12:31:43.653Z,46.97
2018-02-08T12:34:10.592Z,55.30
2018-02-08T12:36:38.453Z,48.50
2018-02-08T12:39:05.376Z,46.78
2018-02-08T12:41:32.292Z,46.28
2018-02-08T12:44:00.004Z,52.58
2018-02-08T12:46:26.927Z,47.00
2018-02-08T12:48:55.808Z,42.85
2018-02-08T12:51:22.747Z,42.97
2018-02-08T12:53:50.620Z,37.92
2018-02-08T12:56:17.523Z,38.97
2018-02-08T12:58:44.476Z,38.50
2018-02-08T13:01:16.712Z,37.78
2018-02-08T13:03:43.657Z,35.03
2018-02-08T13:06:10.584Z,35.38
2018-02-08T13:08:37.503Z,39.10
2018-02-08T13:11:05.348Z,35.63
2018-02-08T13:13:32.285Z,38.17
2018-02-08T13:15:59.199Z,39.65
2018-02-08T13:18:26.120Z,46.80
2018-02-08T13:20:53.040Z,38.33
2018-02-08T13:23:20.723Z,45.15
2018-02-08T13:25:47.629Z,41.13
2018-02-08T13:28:14.566Z,43.78
2018-02-08T13:30:41.483Z,39.15
2018-02-08T13:33:08.430Z,35.05
2018-02-08T13:35:35.348Z,39.50
2018-02-08T13:38:02.284Z,48.22
2018-02-08T13:40:29.187Z,41.15
2018-02-08T13:42:56.113Z,38.17
2018-02-08T13:45:24.037Z,37.00
2018-02-08T13:47:50.977Z,35.08
2018-02-08T13:50:17.889Z,35.25
2018-02-08T13:52:45.583Z,42.58
2018-02-08T13:55:12.493Z,36.95
2018-02-08T13:57:39.429Z,40.20
2018-02-08T14:00:08.140Z,41.63
2018-02-08T14:02:35.835Z,36.72
2018-02-08T14:05:04.702Z,39.53
2018-02-08T14:07:31.645Z,35.35
2018-02-08T14:09:58.560Z,35.80
2018-02-08T14:12:25.488Z,38.75
2018-02-08T14:14:54.320Z,38.50
2018-02-08T14:17:22.033Z,33.50
2018-02-08T14:19:48.983Z,39.38
2018-02-08T14:22:15.888Z,35.75
2018-02-08T14:24:42.819Z,36.22
2018-02-08T14:27:10.513Z,35.72
2018-02-08T14:29:38.443Z,40.22
2018-02-08T14:32:06.143Z,35.08
2018-02-08T14:34:34.069Z,32.97
2018-02-08T14:37:01.764Z,38.35
2018-02-08T14:39:28.680Z,42.50
2018-02-08T14:42:00.744Z,43.05
2018-02-08T14:44:29.416Z,41.35
2018-02-08T14:46:56.344Z,41.92
2018-02-08T14:49:24.244Z,38.38
2018-02-08T14:51:51.980Z,37.00
2018-02-08T14:54:19.868Z,44.75
2018-02-08T14:56:47.560Z,44.25
2018-02-08T14:59:14.467Z,40.40
2018-02-08T15:01:41.401Z,41.78
2018-02-08T15:04:08.316Z,40.20
2018-02-08T15:06:35.247Z,47.22
2018-02-08T15:09:02.173Z,35.17
2018-02-08T15:11:29.101Z,39.17
2018-02-08T15:13:56.780Z,47.55
2018-02-08T15:16:23.724Z,45.50
2018-02-08T15:18:50.627Z,47.05
2018-02-08T15:21:17.551Z,47.10
2018-02-08T15:23:44.463Z,44.08
2018-02-08T15:26:11.367Z,50.95
2018-02-08T15:28:39.052Z,46.88
2018-02-08T15:31:05.954Z,44.00
2018-02-08T15:33:32.890Z,47.85
2018-02-08T15:36:04.164Z,43.50
2018-02-08T15:38:31.870Z,47.28
2018-02-08T15:41:00.728Z,60.85
2018-02-08T15:43:29.421Z,74.37
2018-02-08T15:45:56.358Z,81.63
2018-02-08T15:48:25.263Z,76.75
2018-02-08T15:50:52.213Z,92.05
2018-02-08T15:53:19.148Z,82.82
2018-02-08T15:55:46.081Z,68.57
2018-02-08T15:58:14.684Z,66.20
2018-02-08T16:00:43.562Z,75.47
2018-02-08T16:03:11.460Z,85.10
2018-02-08T16:05:40.321Z,69.87
2018-02-08T16:08:09.220Z,73.70
2018-02-08T16:10:37.076Z,65.78
2018-02-08T16:13:06.810Z,49.83
2018-02-08T16:15:34.781Z,61.25
2018-02-08T16:18:02.796Z,57.33
2018-02-08T16:20:30.684Z,57.67
2018-02-08T16:22:59.445Z,51.85
2018-02-08T16:25:26.378Z,52.03
2018-02-08T16:27:53.331Z,49.95
2018-02-08T16:30:20.277Z,47.53
2018-02-08T16:32:48.120Z,58.00
2018-02-08T16:35:15.974Z,65.65
2018-02-08T16:37:42.911Z,61.30
2018-02-08T16:40:09.815Z,62.78
2018-02-08T16:42:36.758Z,54.00
2018-02-08T16:45:03.769Z,53.80
2018-02-08T16:47:30.704Z,51.10
2018-02-08T16:49:57.635Z,50.05
2018-02-08T16:52:24.563Z,54.03
2018-02-08T16:54:51.489Z,59.13
2018-02-08T16:57:19.175Z,58.97
2018-02-08T16:59:46.116Z,64.30
2018-02-08T17:02:13.959Z,60.60
2018-02-08T17:04:41.800Z,52.45
2018-02-08T17:07:08.740Z,60.08
2018-02-08T17:09:35.682Z,66.37
2018-02-08T17:12:02.593Z,67.72
2018-02-08T17:14:29.530Z,60.08
2018-02-08T17:16:56.448Z,62.30
2018-02-08T17:19:24.164Z,61.00
2018-02-08T17:21:51.993Z,58.40
2018-02-08T17:24:18.936Z,59.03
2018-02-08T17:26:45.873Z,62.13
2018-02-08T17:29:13.559Z,64.53
2018-02-08T17:31:45.653Z,63.97
2018-02-08T17:34:12.592Z,68.32
2018-02-08T17:36:39.512Z,61.28
2018-02-08T17:39:06.440Z,69.50
2018-02-08T17:41:33.352Z,66.20
2018-02-08T17:44:00.349Z,65.97
2018-02-08T17:46:27.260Z,69.40
2018-02-08T17:48:54.956Z,66.07
2018-02-08T17:51:21.880Z,65.75
2018-02-08T17:53:49.592Z,70.10
2018-02-08T17:56:16.500Z,73.78
2018-02-08T17:58:43.460Z,60.20
2018-02-08T18:01:10.379Z,62.58
2018-02-08T18:03:37.292Z,57.33
2018-02-08T18:06:05.185Z,74.87
2018-02-08T18:08:32.865Z,65.35
2018-02-08T18:10:59.814Z,67.82
2018-02-08T18:13:26.759Z,70.40
2018-02-08T18:15:54.609Z,71.12
2018-02-08T18:18:24.329Z,67.97
2018-02-08T18:20:53.207Z,68.55
2018-02-08T18:23:22.015Z,63.70
2018-02-08T18:25:48.975Z,60.45
2018-02-08T18:28:15.883Z,62.90
2018-02-08T18:30:42.819Z,63.92
2018-02-08T18:33:11.500Z,74.68
2018-02-08T18:35:42.271Z,70.55
2018-02-08T18:38:09.197Z,66.17
2018-02-08T18:40:37.098Z,64.45
2018-02-08T18:43:05.049Z,68.97
2018-02-08T18:45:32.028Z,65.30
2018-02-08T18:48:00.949Z,69.65
2018-02-08T18:50:28.696Z,64.65
2018-02-08T18:52:55.611Z,68.85
2018-02-08T18:55:22.532Z,74.60
2018-02-08T18:57:51.392Z,71.65
2018-02-08T19:00:19.236Z,69.62
2018-02-08T19:02:46.150Z,70.62
2018-02-08T19:05:13.101Z,68.65
2018-02-08T19:07:40.030Z,80.50
2018-02-08T19:10:07.988Z,78.15
2018-02-08T19:12:34.950Z,70.65
2018-02-08T19:15:01.884Z,75.50
2018-02-08T19:17:28.800Z,81.95
2018-02-08T19:19:56.500Z,69.40
2018-02-08T19:22:23.421Z,66.65
2018-02-08T19:24:50.355Z,67.03
2018-02-08T19:27:18.201Z,77.55
2018-02-08T19:29:46.099Z,73.20
2018-02-08T19:32:13.022Z,72.32
2018-02-08T19:34:40.720Z,74.50
2018-02-08T19:37:07.636Z,78.53
2018-02-08T19:39:35.511Z,82.93
2018-02-08T19:42:02.429Z,77.80
2018-02-08T19:44:29.461Z,87.85
2018-02-08T19:46:57.349Z,87.25
2018-02-08T19:49:26.052Z,78.60
2018-02-08T19:51:52.975Z,83.12
2018-02-08T19:54:20.676Z,78.57
2018-02-08T19:56:47.592Z,89.40
2018-02-08T19:59:15.283Z,92.88
2018-02-08T20:01:42.198Z,88.62
2018-02-08T20:04:11.948Z,84.78
2018-02-08T20:06:38.860Z,79.62
2018-02-08T20:09:05.786Z,89.90
2018-02-08T20:11:32.721Z,91.60
2018-02-08T20:14:00.418Z,85.97
2018-02-08T20:16:27.339Z,90.03
2018-02-08T20:18:55.063Z,86.80
2018-02-08T20:21:23.956Z,88.43
2018-02-08T20:23:50.937Z,101.82
2018-02-08T20:26:19.624Z,85.68
2018-02-08T20:28:47.323Z,93.40
2018-02-08T20:31:14.240Z,112.47
2018-02-08T20:33:41.960Z,94.97
2018-02-08T20:36:08.876Z,91.63
2018-02-08T20:38:35.813Z,92.75
2018-02-08T20:41:03.652Z,102.45
2018-02-08T20:43:30.579Z,104.87
2018-02-08T20:45:57.508Z,103.50
2018-02-08T20:48:25.448Z,95.50
2018-02-08T20:50:52.364Z,106.03
2018-02-08T20:53:20.257Z,102.95
2018-02-08T20:55:48.190Z,106.40
2018-02-08T20:58:15.891Z,115.57
2018-02-08T21:00:42.847Z,114.12
2018-02-08T21:03:09.779Z,109.53
2018-02-08T21:05:36.734Z,116.18
2018-02-08T21:08:03.672Z,106.78
2018-02-08T21:10:31.592Z,109.82
2018-02-08T21:12:59.326Z,116.37
2018-02-08T21:15:27.220Z,111.85
2018-02-08T21:17:54.912Z,110.30
2018-02-08T21:20:21.843Z,99.55
2018-02-08T21:22:48.780Z,97.88
2018-02-08T21:25:15.753Z,118.53
2018-02-08T21:27:42.693Z,111.35
2018-02-08T21:30:09.624Z,101.03
2018-02-08T21:32:37.344Z,122.45
2018-02-08T21:35:04.259Z,113.60
2018-02-08T21:37:31.208Z,107.70
2018-02-08T21:39:59.145Z,101.40
2018-02-08T21:42:26.080Z,116.03
2018-02-08T21:44:53.756Z,113.68
2018-02-08T21:47:20.679Z,108.57
2018-02-08T21:49:48.360Z,111.78
2018-02-08T21:52:15.292Z,118.30
2018-02-08T21:54:44.900Z,113.15
2018-02-08T21:57:12.653Z,118.95
2018-02-08T21:59:40.332Z,110.53
2018-02-08T22:02:08.024Z,125.05
2018-02-08T22:04:35.848Z,113.97
2018-02-08T22:07:02.788Z,110.68
2018-02-08T22:09:30.492Z,111.47
2018-02-08T22:11:57.448Z,114.35
2018-02-08T22:14:24.409Z,117.72
2018-02-08T22:16:51.310Z,107.50
2018-02-08T22:19:20.192Z,126.43
2018-02-08T22:21:47.105Z,110.10
2018-02-08T22:24:14.043Z,118.80
2018-02-08T22:26:40.947Z,109.25
2018-02-08T22:29:09.793Z,119.13
2018-02-08T22:31:36.707Z,115.37
2018-02-08T22:34:03.662Z,111.47
2018-02-08T22:36:30.636Z,125.65
2018-02-08T22:38:57.595Z,114.82
2018-02-08T22:41:24.509Z,118.97
2018-02-08T22:43:52.405Z,126.68
2018-02-08T22:46:20.215Z,127.47
2018-02-08T22:48:47.135Z,130.32
2018-02-08T22:51:14.044Z,136.48
2018-02-08T22:53:41.000Z,124.22
2018-02-08T22:56:07.912Z,130.23
2018-02-08T22:58:34.840Z,123.32
2018-02-08T23:01:01.758Z,122.50
2018-02-08T23:03:28.742Z,131.85
2018-02-08T23:05:55.687Z,116.10
2018-02-08T23:08:22.616Z,134.87
2018-02-08T23:10:49.556Z,136.18
2018-02-08T23:13:16.493Z,137.15
2018-02-08T23:15:44.190Z,128.82
2018-02-08T23:18:11.143Z,124.47
2018-02-08T23:20:38.865Z,130.93
2018-02-08T23:23:05.792Z,134.70
2018-02-08T23:25:33.762Z,133.82
2018-02-08T23:28:00.695Z,145.40
2018-02-08T23:30:27.608Z,136.27
2018-02-08T23:32:54.553Z,130.60
2018-02-08T23:35:22.228Z,121.32
2018-02-08T23:37:49.165Z,130.95
2018-02-08T23:40:16.087Z,130.37
2018-02-08T23:42:42.996Z,125.07
2018-02-08T23:45:09.924Z,123.40
2018-02-08T23:47:36.836Z,120.93
2018-02-08T23:50:03.772Z,147.98
2018-02-08T23:52:31.459Z,131.80
2018-02-08T23:54:58.392Z,131.23
2018-02-08T23:57:26.191Z,114.10
2018-02-08T23:59:59.256Z,128.90
